Time;durP1;ratioP1;P1;durP2;ratioP2;P2;SDS_P1;SDS_P2;PMS_P1;PMS_P2;Temp;Humidity;BMP_temperature;BMP_pressure;BME280_temperature;BME280_humidity;BME280_pressure;Samples;Min_cycle;Max_cycle;Signal;HPM_P1;HPM_P2
2023/05/01 00:00:49;;;;;;;20.40;9.10;;;;;;;;;;110314;1278;22803;-77
2023/05/01 00:03:19;;;;;;;22.10;9.80;;;;;;;;;;110208;1278;22160;-77
2023/05/01 00:05:46;;;;;;;23.20;10.80;;;;;;;;;;110597;1259;22203;-77
2023/05/01 00:08:14;;;;;;;24.10;11.30;;;;;;;;;;110208;1278;22221;-77
2023/05/01 00:10:42;;;;;;;25.70;11.00;;;;;;;;;;110356;1279;22109;-77
2023/05/01 00:13:09;;;;;;;30.50;11.70;;;;;;;;;;110198;1278;22087;-77
2023/05/01 00:15:36;;;;;;;29.00;11.90;;;;;;;;;;110374;1257;22124;-77
2023/05/01 00:18:02;;;;;;;25.30;12.30;;;;;;;;;;110341;1278;22062;-77
2023/05/01 00:20:29;;;;;;;22.40;10.80;;;;;;;;;;110338;1278;22876;-77
2023/05/01 00:22:56;;;;;;;26.10;10.90;;;;;;;;;;110345;1278;22163;-77
2023/05/01 00:25:23;;;;;;;25.20;10.90;;;;;;;;;;110283;1257;22146;-77
2023/05/01 00:27:50;;;;;;;29.20;12.80;;;;;;;;;;110348;1278;22118;-77
2023/05/01 00:30:17;;;;;;;28.20;12.00;;;;;;;;;;110345;1278;22121;-77
2023/05/01 00:32:44;;;;;;;25.50;12.60;;;;;;;;;;110186;1278;22103;-77
2023/05/01 00:35:11;;;;;;;29.10;13.50;;;;;;;;;;110421;1256;22135;-77
2023/05/01 00:37:38;;;;;;;29.30;12.60;;;;;;;;;;110165;1279;22872;-77
2023/05/01 00:40:05;;;;;;;30.90;12.80;;;;;;;;;;110157;1279;22157;-77
2023/05/01 00:42:38;;;;;;;28.90;13.80;;;;;;;;;;110168;1279;22169;-77
2023/05/01 00:45:06;;;;;;;26.20;12.40;;;;;;;;;;110206;1259;22175;-77
2023/05/01 00:47:34;;;;;;;26.70;10.80;;;;;;;;;;110183;1279;22193;-77
2023/05/01 00:50:02;;;;;;;23.80;10.00;;;;;;;;;;110115;1279;22101;-77
2023/05/01 00:52:29;;;;;;;23.50;10.50;;;;;;;;;;110282;1279;22179;-77
2023/05/01 00:54:57;;;;;;;21.10;9.60;;;;;;;;;;110329;1256;22217;-77
2023/05/01 00:57:24;;;;;;;22.10;9.60;;;;;;;;;;110264;1279;22854;-77
2023/05/01 00:59:50;;;;;;;20.40;10.10;;;;;;;;;;110189;1279;22104;-77
2023/05/01 01:02:17;;;;;;;26.90;11.70;;;;;;;;;;110107;1279;22880;-77
2023/05/01 01:04:45;;;;;;;25.80;12.30;;;;;;;;;;110135;1270;22166;-77
2023/05/01 01:07:20;;;;;;;30.70;12.50;;;;;;;;;;110478;1258;22116;-77
2023/05/01 01:09:53;;;;;;;29.40;12.60;;;;;;;;;;110259;1279;22119;-77
2023/05/01 01:12:31;;;;;;;27.50;12.70;;;;;;;;;;110237;1279;22173;-77
2023/05/01 01:15:08;;;;;;;27.70;11.80;;;;;;;;;;110090;1279;22142;-77
2023/05/01 01:17:41;;;;;;;29.20;13.10;;;;;;;;;;110493;1259;22889;-77
2023/05/01 01:20:20;;;;;;;24.80;11.40;;;;;;;;;;110181;1279;22159;-77
2023/05/01 01:22:52;;;;;;;28.50;11.90;;;;;;;;;;110184;1279;22270;-77
2023/05/01 01:25:22;;;;;;;24.70;10.50;;;;;;;;;;110248;1279;22383;-77
2023/05/01 01:28:05;;;;;;;31.20;11.70;;;;;;;;;;110279;1275;22735;-77
2023/05/01 01:30:31;;;;;;;30.70;12.10;;;;;;;;;;110316;1278;22236;-77
2023/05/01 01:33:06;;;;;;;23.80;11.90;;;;;;;;;;110173;1279;22358;-77
2023/05/01 01:35:34;;;;;;;28.90;12.10;;;;;;;;;;110142;1269;22410;-77
2023/05/01 01:38:07;;;;;;;24.60;11.50;;;;;;;;;;110054;1262;22119;-77
2023/05/01 01:40:38;;;;;;;25.50;11.80;;;;;;;;;;110085;1280;22932;-77
2023/05/01 01:43:07;;;;;;;23.50;11.70;;;;;;;;;;110070;1280;22103;-77
2023/05/01 01:45:46;;;;;;;25.30;12.00;;;;;;;;;;110092;1280;22132;-77
2023/05/01 01:48:21;;;;;;;23.60;11.60;;;;;;;;;;110355;1262;22130;-77
2023/05/01 01:50:50;;;;;;;26.70;11.90;;;;;;;;;;110034;1278;22080;-77
2023/05/01 01:53:19;;;;;;;23.50;11.10;;;;;;;;;;110129;1280;22117;-77
2023/05/01 01:55:47;;;;;;;25.60;11.20;;;;;;;;;;110048;1280;22081;-78
2023/05/01 01:58:17;;;;;;;23.60;10.30;;;;;;;;;;110258;1262;22149;-78
2023/05/01 02:00:45;;;;;;;25.60;10.00;;;;;;;;;;110102;1280;22120;-78
2023/05/01 02:03:17;;;;;;;23.20;10.40;;;;;;;;;;110159;1280;22104;-78
2023/05/01 02:05:46;;;;;;;24.50;10.60;;;;;;;;;;110083;1280;22847;-78
2023/05/01 02:08:13;;;;;;;21.70;10.10;;;;;;;;;;110392;1263;22186;-78
2023/05/01 02:10:42;;;;;;;22.60;10.20;;;;;;;;;;110099;1275;22167;-78
2023/05/01 02:13:11;;;;;;;20.30;9.70;;;;;;;;;;110147;1280;22117;-77
2023/05/01 02:15:40;;;;;;;23.10;10.50;;;;;;;;;;110073;1280;23003;-77
2023/05/01 02:18:07;;;;;;;24.20;10.70;;;;;;;;;;110321;1259;22140;-78
2023/05/01 02:20:36;;;;;;;20.40;9.40;;;;;;;;;;110024;1280;22125;-78
2023/05/01 02:23:04;;;;;;;19.40;9.60;;;;;;;;;;110075;1280;22404;-78
2023/05/01 02:25:33;;;;;;;21.90;10.10;;;;;;;;;;110072;1280;22064;-77
2023/05/01 02:28:05;;;;;;;21.00;9.60;;;;;;;;;;110277;1262;21752;-78
2023/05/01 02:30:33;;;;;;;22.10;9.30;;;;;;;;;;110138;1276;23061;-77
2023/05/01 02:33:00;;;;;;;20.50;9.90;;;;;;;;;;110128;1280;22138;-77
2023/05/01 02:35:28;;;;;;;21.50;9.60;;;;;;;;;;110033;1281;22081;-77
2023/05/01 02:37:57;;;;;;;20.40;9.40;;;;;;;;;;110163;1259;22275;-77
2023/05/01 02:40:27;;;;;;;22.10;10.20;;;;;;;;;;110078;1281;22836;-77
2023/05/01 02:42:58;;;;;;;23.80;9.80;;;;;;;;;;110025;1281;22100;-77
2023/05/01 02:45:28;;;;;;;25.60;10.10;;;;;;;;;;110114;1281;22100;-77
2023/05/01 02:47:58;;;;;;;20.40;9.30;;;;;;;;;;110084;1259;22974;-77
2023/05/01 02:50:27;;;;;;;18.90;9.50;;;;;;;;;;110057;1281;22152;-77
2023/05/01 02:52:57;;;;;;;21.90;9.60;;;;;;;;;;110051;1281;22112;-77
2023/05/01 02:55:30;;;;;;;22.60;9.50;;;;;;;;;;110060;1280;22166;-77
2023/05/01 02:58:00;;;;;;;22.50;10.10;;;;;;;;;;110033;1260;22100;-77
2023/05/01 03:00:29;;;;;;;23.10;10.00;;;;;;;;;;110061;1281;22131;-77
2023/05/01 03:03:00;;;;;;;20.70;10.30;;;;;;;;;;110104;1281;22781;-77
2023/05/01 03:05:28;;;;;;;23.70;9.50;;;;;;;;;;110060;1278;22106;-77
2023/05/01 03:07:58;;;;;;;22.00;9.00;;;;;;;;;;110099;1257;23096;-78
2023/05/01 03:10:27;;;;;;;19.20;8.80;;;;;;;;;;110098;1281;22238;-77
2023/05/01 03:12:56;;;;;;;22.90;9.80;;;;;;;;;;110108;1281;22125;-78
2023/05/01 03:15:25;;;;;;;23.40;9.60;;;;;;;;;;110112;1281;22270;-77
2023/05/01 03:17:55;;;;;;;24.90;9.50;;;;;;;;;;110039;1259;23243;-77
2023/05/01 03:20:25;;;;;;;18.70;8.80;;;;;;;;;;110025;1281;22159;-77
2023/05/01 03:22:54;;;;;;;22.80;9.20;;;;;;;;;;110131;1281;22875;-77
2023/05/01 03:25:24;;;;;;;21.30;9.20;;;;;;;;;;110108;1281;22851;-77
2023/05/01 03:27:53;;;;;;;23.00;9.40;;;;;;;;;;110041;1281;22112;-77
2023/05/01 03:30:23;;;;;;;22.60;9.10;;;;;;;;;;110454;1262;22203;-77
2023/05/01 03:32:51;;;;;;;19.90;9.00;;;;;;;;;;110095;1281;22189;-77
2023/05/01 03:42:18;;;;;;;19.10;9.00;;;;;;;;;;103965;1292;545374;-84
2023/05/01 03:44:51;;;;;;;19.10;9.70;;;;;;;;;;106039;1286;22753;-81
2023/05/01 03:47:28;;;;;;;18.70;8.60;;;;;;;;;;106338;1286;25339;-82
2023/05/01 03:49:58;;;;;;;24.00;10.10;;;;;;;;;;106472;1286;23914;-79
2023/05/01 03:52:27;;;;;;;18.90;9.40;;;;;;;;;;106045;1288;24244;-81
2023/05/01 03:54:59;;;;;;;21.60;9.70;;;;;;;;;;103924;1285;3056151;-82
2023/05/01 03:57:43;;;;;;;20.60;9.20;;;;;;;;;;106388;1285;24812;-82
2023/05/01 04:00:10;;;;;;;22.60;9.80;;;;;;;;;;106341;1285;25323;-82
2023/05/01 04:02:46;;;;;;;21.60;9.40;;;;;;;;;;106400;1271;21718;-84
2023/05/01 04:05:17;;;;;;;21.30;9.20;;;;;;;;;;106232;1284;26516;-79
2023/05/01 04:07:48;;;;;;;18.50;9.20;;;;;;;;;;106437;1284;25396;-82
2023/05/01 04:10:21;;;;;;;19.30;9.40;;;;;;;;;;106440;1284;22539;-82
2023/05/01 04:12:56;;;;;;;21.10;9.90;;;;;;;;;;106412;1266;25351;-78
2023/05/01 04:15:25;;;;;;;21.70;10.80;;;;;;;;;;106387;1284;22533;-82
2023/05/01 04:27:45;;;;;;;21.10;10.80;;;;;;;;;;103900;1296;547944;-78
2023/05/01 04:30:19;;;;;;;20.70;9.40;;;;;;;;;;106368;1286;24259;-81
2023/05/01 04:33:10;;;;;;;21.80;10.10;;;;;;;;;;106878;1278;22611;-77
2023/05/01 04:35:39;;;;;;;23.00;9.20;;;;;;;;;;106748;1279;22534;-80
2023/05/01 04:38:15;;;;;;;22.00;10.30;;;;;;;;;;106498;1263;22782;-79
2023/05/01 04:40:55;;;;;;;21.20;9.60;;;;;;;;;;104540;1278;2945847;-83
2023/05/01 04:43:24;;;;;;;21.80;10.90;;;;;;;;;;106772;1278;25356;-82
2023/05/01 04:45:50;;;;;;;20.80;9.90;;;;;;;;;;106787;1278;22533;-82
2023/05/01 04:48:29;;;;;;;27.30;11.20;;;;;;;;;;106870;1270;24369;-78
2023/05/01 04:50:56;;;;;;;20.80;10.00;;;;;;;;;;106886;1273;24242;-85
2023/05/01 04:53:23;;;;;;;20.20;10.40;;;;;;;;;;106987;1276;23365;-77
2023/05/01 04:55:49;;;;;;;24.20;11.50;;;;;;;;;;107006;1276;26477;-79
2023/05/01 04:58:16;;;;;;;23.70;10.80;;;;;;;;;;106912;1259;22551;-85
2023/05/01 05:00:44;;;;;;;24.80;10.80;;;;;;;;;;106930;1276;23887;-82
2023/05/01 05:03:17;;;;;;;20.40;9.00;;;;;;;;;;106895;1276;23898;-80
2023/05/01 05:05:45;;;;;;;19.70;9.00;;;;;;;;;;106923;1273;22526;-78
2023/05/01 05:08:12;;;;;;;23.50;9.80;;;;;;;;;;106890;1276;24154;-82
2023/05/01 05:10:39;;;;;;;19.00;8.80;;;;;;;;;;106934;1276;24368;-80
2023/05/01 05:13:24;;;;;;;18.80;8.70;;;;;;;;;;106916;1276;22557;-80
2023/05/01 05:15:57;;;;;;;18.60;8.80;;;;;;;;;;106939;1276;24231;-82
2023/05/01 05:18:32;;;;;;;20.70;8.90;;;;;;;;;;106877;1260;25408;-82
2023/05/01 05:21:01;;;;;;;18.80;8.50;;;;;;;;;;106946;1276;22523;-81
2023/05/01 05:23:30;;;;;;;15.80;8.40;;;;;;;;;;106914;1276;22566;-84
2023/05/01 05:26:00;;;;;;;15.20;6.90;;;;;;;;;;106889;1276;22527;-82
2023/05/01 05:28:30;;;;;;;15.10;6.90;;;;;;;;;;106875;1276;22986;-83
2023/05/01 05:30:56;;;;;;;13.20;5.90;;;;;;;;;;106803;1276;22524;-81
2023/05/01 05:33:24;;;;;;;14.90;6.40;;;;;;;;;;106832;1276;22536;-84
2023/05/01 05:35:51;;;;;;;16.90;6.80;;;;;;;;;;106822;1276;22761;-83
2023/05/01 05:38:20;;;;;;;17.60;6.80;;;;;;;;;;107031;1257;24325;-81
2023/05/01 05:40:48;;;;;;;17.80;7.40;;;;;;;;;;107045;1276;22543;-83
2023/05/01 05:43:14;;;;;;;17.10;7.70;;;;;;;;;;106894;1276;22675;-78
2023/05/01 05:45:41;;;;;;;20.30;8.30;;;;;;;;;;106916;1276;22530;-77
2023/05/01 05:48:10;;;;;;;16.10;8.00;;;;;;;;;;106905;1260;23883;-82
2023/05/01 05:50:41;;;;;;;18.30;7.60;;;;;;;;;;106876;1276;24245;-82
2023/05/01 05:53:13;;;;;;;13.50;6.10;;;;;;;;;;107169;1272;25898;-80
2023/05/01 05:55:39;;;;;;;14.60;5.50;;;;;;;;;;107074;1272;24205;-83
2023/05/01 05:58:05;;;;;;;17.30;6.40;;;;;;;;;;107296;1266;22531;-81
2023/05/01 06:00:32;;;;;;;14.50;5.50;;;;;;;;;;107174;1273;24240;-79
2023/05/01 06:03:02;;;;;;;11.90;4.60;;;;;;;;;;107236;1251;24205;-85
2023/05/01 06:05:34;;;;;;;10.30;4.80;;;;;;;;;;107174;1272;25396;-80
2023/05/01 06:08:01;;;;;;;15.60;5.30;;;;;;;;;;107291;1251;22538;-77
2023/05/01 06:10:27;;;;;;;13.80;5.30;;;;;;;;;;107123;1272;25236;-80
2023/05/01 06:12:53;;;;;;;12.80;4.90;;;;;;;;;;107237;1272;25328;-82
2023/05/01 06:15:20;;;;;;;12.70;4.90;;;;;;;;;;107276;1272;22786;-79
2023/05/01 06:17:52;;;;;;;16.70;5.30;;;;;;;;;;107221;1272;24355;-83
2023/05/01 06:20:18;;;;;;;14.20;5.50;;;;;;;;;;107228;1272;24183;-85
2023/05/01 06:22:45;;;;;;;11.90;5.60;;;;;;;;;;107120;1272;24042;-80
2023/05/01 06:25:20;;;;;;;10.70;4.60;;;;;;;;;;107225;1272;22550;-84
2023/05/01 06:27:46;;;;;;;12.10;5.30;;;;;;;;;;106897;1273;22519;-80
2023/05/01 06:30:12;;;;;;;13.30;5.40;;;;;;;;;;107057;1257;24211;-80
2023/05/01 06:32:42;;;;;;;13.70;5.20;;;;;;;;;;107247;1272;22678;-84
2023/05/01 06:35:09;;;;;;;11.90;4.60;;;;;;;;;;107246;1272;23797;-82
2023/05/01 06:37:44;;;;;;;11.60;4.40;;;;;;;;;;107058;1272;26614;-81
2023/05/01 06:40:11;;;;;;;11.00;4.50;;;;;;;;;;107077;1256;22668;-80
2023/05/01 06:42:38;;;;;;;11.10;4.10;;;;;;;;;;107089;1273;22515;-80
2023/05/01 06:45:05;;;;;;;13.10;3.90;;;;;;;;;;107150;1273;22533;-78
2023/05/01 06:47:31;;;;;;;11.60;4.50;;;;;;;;;;107164;1273;22532;-84
2023/05/01 06:49:57;;;;;;;12.40;4.40;;;;;;;;;;107184;1266;22605;-80
2023/05/01 06:52:23;;;;;;;11.70;4.50;;;;;;;;;;107180;1272;22574;-83
2023/05/01 06:54:49;;;;;;;10.20;3.90;;;;;;;;;;107130;1272;22760;-86
2023/05/01 06:57:16;;;;;;;11.40;3.80;;;;;;;;;;107148;1273;22539;-78
2023/05/01 06:59:42;;;;;;;12.10;4.50;;;;;;;;;;106991;1257;24214;-80
2023/05/01 07:02:08;;;;;;;10.20;3.70;;;;;;;;;;107220;1272;22649;-81
2023/05/01 07:04:34;;;;;;;12.70;3.50;;;;;;;;;;107162;1272;25365;-79
2023/05/01 07:07:01;;;;;;;12.00;3.50;;;;;;;;;;107226;1272;24252;-85
2023/05/01 07:09:28;;;;;;;10.20;3.70;;;;;;;;;;107211;1272;22527;-81
2023/05/01 07:11:55;;;;;;;11.40;4.00;;;;;;;;;;107295;1272;22537;-77
2023/05/01 07:14:22;;;;;;;11.20;3.30;;;;;;;;;;107163;1272;24241;-83
2023/05/01 07:16:49;;;;;;;9.60;3.80;;;;;;;;;;107155;1263;24944;-84
2023/05/01 07:19:15;;;;;;;10.00;3.40;;;;;;;;;;107253;1272;22932;-78
2023/05/01 07:21:41;;;;;;;10.40;3.60;;;;;;;;;;107147;1256;24186;-79
2023/05/01 07:24:07;;;;;;;8.90;3.70;;;;;;;;;;107168;1273;24237;-79
2023/05/01 07:26:34;;;;;;;11.50;3.70;;;;;;;;;;107124;1273;22530;-87
2023/05/01 07:29:00;;;;;;;9.70;3.40;;;;;;;;;;107055;1273;25275;-83
2023/05/01 07:31:26;;;;;;;11.20;3.30;;;;;;;;;;107024;1256;24682;-83
2023/05/01 07:33:52;;;;;;;7.00;2.90;;;;;;;;;;107156;1272;24289;-86
2023/05/01 07:36:20;;;;;;;11.20;3.10;;;;;;;;;;107187;1263;22652;-84
2023/05/01 07:38:47;;;;;;;6.80;2.50;;;;;;;;;;107237;1272;24331;-85
2023/05/01 07:41:13;;;;;;;11.30;2.60;;;;;;;;;;107242;1250;25346;-77
2023/05/01 07:43:39;;;;;;;8.70;3.00;;;;;;;;;;107233;1272;25268;-80
2023/05/01 07:46:05;;;;;;;9.60;2.80;;;;;;;;;;107202;1272;22741;-79
2023/05/01 07:48:32;;;;;;;10.30;2.50;;;;;;;;;;107087;1272;22661;-80
2023/05/01 07:51:00;;;;;;;13.00;2.80;;;;;;;;;;107108;1256;22643;-82
2023/05/01 07:53:27;;;;;;;10.90;2.70;;;;;;;;;;107195;1272;24249;-83
2023/05/01 07:55:53;;;;;;;8.60;2.40;;;;;;;;;;107246;1272;22479;-80
2023/05/01 07:58:22;;;;;;;7.90;2.70;;;;;;;;;;107202;1272;25492;-83
2023/05/01 08:00:48;;;;;;;14.80;3.30;;;;;;;;;;107216;1256;25437;-79
2023/05/01 08:03:14;;;;;;;10.40;3.00;;;;;;;;;;107091;1272;22524;-81
2023/05/01 08:05:41;;;;;;;9.60;2.90;;;;;;;;;;107223;1272;24202;-78
2023/05/01 08:08:08;;;;;;;8.40;3.00;;;;;;;;;;107204;1272;24211;-79
2023/05/01 08:10:34;;;;;;;13.10;3.00;;;;;;;;;;107247;1272;23572;-84
2023/05/01 08:13:01;;;;;;;9.80;2.90;;;;;;;;;;107179;1272;22540;-84
2023/05/01 08:15:30;;;;;;;8.00;2.90;;;;;;;;;;107151;1272;22531;-82
2023/05/01 08:17:56;;;;;;;11.60;3.20;;;;;;;;;;107280;1272;25297;-79
2023/05/01 08:20:22;;;;;;;9.70;3.10;;;;;;;;;;107162;1270;22489;-76
2023/05/01 08:22:48;;;;;;;10.20;2.70;;;;;;;;;;107181;1257;24256;-81
2023/05/01 08:25:14;;;;;;;9.20;2.70;;;;;;;;;;107043;1272;22893;-81
2023/05/01 08:27:40;;;;;;;8.40;2.70;;;;;;;;;;107133;1272;22523;-85
2023/05/01 08:30:06;;;;;;;11.60;2.90;;;;;;;;;;107248;1273;24223;-77
2023/05/01 08:32:35;;;;;;;9.30;2.90;;;;;;;;;;107050;1272;22624;-82
2023/05/01 08:35:09;;;;;;;9.60;2.80;;;;;;;;;;107182;1272;23892;-85
2023/05/01 08:37:35;;;;;;;11.00;2.50;;;;;;;;;;107209;1273;22640;-81
2023/05/01 08:40:07;;;;;;;6.60;2.70;;;;;;;;;;107183;1272;22682;-78
2023/05/01 08:42:34;;;;;;;8.30;3.20;;;;;;;;;;107184;1257;25268;-79
2023/05/01 08:45:01;;;;;;;8.60;2.60;;;;;;;;;;107235;1272;22512;-84
2023/05/01 08:47:29;;;;;;;7.80;2.40;;;;;;;;;;107274;1272;22576;-84
2023/05/01 08:49:56;;;;;;;8.60;2.50;;;;;;;;;;107385;1266;22536;-79
2023/05/01 08:52:29;;;;;;;9.90;2.40;;;;;;;;;;107044;1258;22723;-83
2023/05/01 08:54:56;;;;;;;11.30;2.70;;;;;;;;;;107242;1267;25293;-76
2023/05/01 08:57:23;;;;;;;7.50;2.60;;;;;;;;;;107098;1272;25561;-86
2023/05/01 08:59:52;;;;;;;8.30;2.60;;;;;;;;;;107316;1267;22750;-78
2023/05/01 09:02:18;;;;;;;8.20;2.30;;;;;;;;;;107330;1257;22541;-78
2023/05/01 09:04:45;;;;;;;7.90;2.70;;;;;;;;;;107153;1269;22565;-79
2023/05/01 09:07:19;;;;;;;8.10;2.50;;;;;;;;;;107209;1267;25291;-80
2023/05/01 09:09:45;;;;;;;9.50;2.70;;;;;;;;;;107142;1273;22520;-80
2023/05/01 09:12:24;;;;;;;8.80;2.80;;;;;;;;;;107125;1256;25328;-78
2023/05/01 09:14:51;;;;;;;8.20;2.70;;;;;;;;;;107047;1274;25321;-81
2023/05/01 09:17:18;;;;;;;9.50;3.00;;;;;;;;;;106940;1274;22534;-81
2023/05/01 09:19:44;;;;;;;7.70;2.40;;;;;;;;;;107152;1274;22546;-80
2023/05/01 09:22:10;;;;;;;9.80;3.00;;;;;;;;;;106995;1267;22523;-77
2023/05/01 09:24:37;;;;;;;9.60;2.80;;;;;;;;;;106961;1269;22537;-79
2023/05/01 09:27:04;;;;;;;7.60;2.50;;;;;;;;;;107218;1251;22600;-79
2023/05/01 09:29:38;;;;;;;7.80;2.70;;;;;;;;;;107016;1273;22544;-78
2023/05/01 09:32:23;;;;;;;7.20;2.00;;;;;;;;;;107208;1254;26778;-81
2023/05/01 09:34:50;;;;;;;7.50;2.60;;;;;;;;;;106924;1275;22487;-82
2023/05/01 09:37:27;;;;;;;10.50;2.20;;;;;;;;;;106799;1275;25446;-79
2023/05/01 09:40:02;;;;;;;7.20;2.50;;;;;;;;;;107373;1275;22537;-80
2023/05/01 09:42:29;;;;;;;9.30;2.30;;;;;;;;;;107426;1251;22534;-80
2023/05/01 09:44:55;;;;;;;8.60;2.40;;;;;;;;;;107138;1274;22649;-81
2023/05/01 09:47:26;;;;;;;10.70;2.60;;;;;;;;;;107178;1274;23489;-83
2023/05/01 09:49:54;;;;;;;8.30;2.80;;;;;;;;;;107073;1274;25402;-80
2023/05/01 09:52:20;;;;;;;8.10;2.30;;;;;;;;;;107042;1251;24262;-82
2023/05/01 09:54:46;;;;;;;8.00;2.50;;;;;;;;;;107020;1274;24183;-76
2023/05/01 09:57:12;;;;;;;8.00;2.60;;;;;;;;;;110668;1273;22812;-78
2023/05/01 09:59:38;;;;;;;8.90;2.50;;;;;;;;;;110667;1274;22194;-79
2023/05/01 10:02:05;;;;;;;10.30;2.80;;;;;;;;;;110521;1273;22244;-78
2023/05/01 10:04:32;;;;;;;7.50;2.80;;;;;;;;;;110692;1254;22159;-78
2023/05/01 10:07:09;;;;;;;10.20;2.50;;;;;;;;;;110649;1273;22401;-80
2023/05/01 10:09:35;;;;;;;8.90;2.80;;;;;;;;;;110655;1273;22134;-81
2023/05/01 10:12:02;;;;;;;10.00;3.10;;;;;;;;;;110608;1273;22503;-79
2023/05/01 10:14:29;;;;;;;9.90;3.40;;;;;;;;;;110839;1254;22902;-79
2023/05/01 10:16:58;;;;;;;9.10;3.40;;;;;;;;;;110488;1274;22420;-78
2023/05/01 10:19:24;;;;;;;8.20;3.10;;;;;;;;;;110655;1274;22928;-78
2023/05/01 10:21:51;;;;;;;12.70;3.50;;;;;;;;;;110657;1273;22594;-79
2023/05/01 10:24:17;;;;;;;10.20;3.70;;;;;;;;;;110694;1256;22113;-79
2023/05/01 10:26:43;;;;;;;8.60;3.30;;;;;;;;;;110677;1266;22157;-78
2023/05/01 10:29:10;;;;;;;8.30;3.00;;;;;;;;;;110623;1273;22198;-79
2023/05/01 10:31:36;;;;;;;8.30;3.30;;;;;;;;;;110606;1273;22323;-79
2023/05/01 10:34:02;;;;;;;8.30;3.20;;;;;;;;;;110701;1253;22860;-80
2023/05/01 10:36:36;;;;;;;7.80;3.10;;;;;;;;;;110511;1274;22239;-79
2023/05/01 10:39:02;;;;;;;59.50;30.80;;;;;;;;;;110615;1274;22847;-79
2023/05/01 10:41:48;;;;;;;32.00;15.80;;;;;;;;;;110652;1274;22816;-78
2023/05/01 10:44:23;;;;;;;13.50;5.50;;;;;;;;;;110764;1257;22129;-74
2023/05/01 10:46:49;;;;;;;16.00;5.30;;;;;;;;;;110622;1274;22124;-74
2023/05/01 10:49:16;;;;;;;10.30;3.40;;;;;;;;;;110625;1274;22919;-77
2023/05/01 10:51:57;;;;;;;10.90;4.00;;;;;;;;;;110610;1274;22145;-77
2023/05/01 10:54:23;;;;;;;20.30;7.90;;;;;;;;;;110740;1255;22123;-77
2023/05/01 10:56:49;;;;;;;21.80;9.50;;;;;;;;;;110652;1274;23245;-76
2023/05/01 10:59:15;;;;;;;11.40;4.00;;;;;;;;;;110663;1274;22114;-76
2023/05/01 11:01:43;;;;;;;8.30;3.20;;;;;;;;;;110633;1274;22089;-76
2023/05/01 11:04:19;;;;;;;13.20;5.60;;;;;;;;;;110719;1253;22168;-76
2023/05/01 11:07:04;;;;;;;12.30;4.90;;;;;;;;;;110657;1274;22369;-76
2023/05/01 11:09:40;;;;;;;7.80;3.30;;;;;;;;;;110644;1274;22220;-77
2023/05/01 11:12:07;;;;;;;8.20;3.40;;;;;;;;;;110611;1274;22220;-76
2023/05/01 11:14:52;;;;;;;9.50;2.80;;;;;;;;;;110747;1258;22859;-75
2023/05/01 11:17:37;;;;;;;9.40;3.10;;;;;;;;;;110666;1274;22102;-75
2023/05/01 11:20:04;;;;;;;17.20;8.30;;;;;;;;;;110583;1274;22147;-77
2023/05/01 11:22:31;;;;;;;14.30;6.10;;;;;;;;;;110635;1274;22105;-78
2023/05/01 11:24:57;;;;;;;10.90;3.30;;;;;;;;;;110725;1254;22182;-77
2023/05/01 11:27:24;;;;;;;7.50;2.70;;;;;;;;;;110661;1270;22127;-78
2023/05/01 11:29:50;;;;;;;7.40;2.80;;;;;;;;;;110594;1274;22122;-77
2023/05/01 11:32:17;;;;;;;8.10;2.80;;;;;;;;;;110607;1275;22063;-77
2023/05/01 11:34:43;;;;;;;7.10;2.80;;;;;;;;;;110604;1259;22524;-78
2023/05/01 11:37:09;;;;;;;9.50;3.40;;;;;;;;;;110455;1275;22171;-76
2023/05/01 11:39:35;;;;;;;8.60;3.20;;;;;;;;;;110498;1273;22178;-78
2023/05/01 11:42:05;;;;;;;8.10;2.40;;;;;;;;;;110535;1273;22218;-77
2023/05/01 11:44:31;;;;;;;8.00;2.70;;;;;;;;;;110410;1253;22439;-77
2023/05/01 11:46:57;;;;;;;8.20;2.70;;;;;;;;;;110343;1275;23198;-77
2023/05/01 11:49:29;;;;;;;9.80;4.50;;;;;;;;;;110573;1275;22168;-76
2023/05/01 11:51:56;;;;;;;8.50;3.10;;;;;;;;;;110645;1275;22101;-78
2023/05/01 11:54:23;;;;;;;16.00;6.50;;;;;;;;;;110486;1270;22184;-79
2023/05/01 11:57:02;;;;;;;10.00;4.20;;;;;;;;;;110749;1259;23192;-75
2023/05/01 11:59:29;;;;;;;11.10;4.50;;;;;;;;;;110486;1275;22201;-76
2023/05/01 12:01:57;;;;;;;10.70;3.60;;;;;;;;;;110609;1275;22139;-77
2023/05/01 12:04:24;;;;;;;7.90;2.90;;;;;;;;;;110625;1272;22629;-77
2023/05/01 12:06:50;;;;;;;8.70;3.60;;;;;;;;;;110767;1256;22481;-77
2023/05/01 12:09:18;;;;;;;7.40;3.10;;;;;;;;;;110401;1275;22167;-77
2023/05/01 12:11:45;;;;;;;8.10;3.10;;;;;;;;;;110538;1275;22252;-78
2023/05/01 12:14:28;;;;;;;7.10;2.50;;;;;;;;;;110500;1275;22109;-78
2023/05/01 12:17:01;;;;;;;11.90;4.90;;;;;;;;;;110873;1259;23119;-77
2023/05/01 12:19:30;;;;;;;8.60;3.70;;;;;;;;;;110354;1275;22189;-78
2023/05/01 12:22:07;;;;;;;8.10;3.40;;;;;;;;;;110505;1275;22884;-81
2023/05/01 12:24:36;;;;;;;7.40;3.00;;;;;;;;;;110598;1271;22169;-77
2023/05/01 12:27:03;;;;;;;8.60;3.40;;;;;;;;;;110741;1259;21986;-77
2023/05/01 12:29:38;;;;;;;9.80;3.50;;;;;;;;;;110601;1275;22497;-78
2023/05/01 12:32:06;;;;;;;10.60;3.60;;;;;;;;;;110481;1275;22132;-79
2023/05/01 12:34:32;;;;;;;10.90;4.30;;;;;;;;;;110484;1275;22154;-77
2023/05/01 12:36:58;;;;;;;9.90;4.30;;;;;;;;;;110610;1259;22993;-77
2023/05/01 12:39:37;;;;;;;8.10;3.10;;;;;;;;;;110585;1276;22145;-78
2023/05/01 12:42:10;;;;;;;9.10;3.20;;;;;;;;;;110469;1276;22122;-78
2023/05/01 12:44:38;;;;;;;12.10;3.40;;;;;;;;;;110471;1276;22721;-77
2023/05/01 12:47:06;;;;;;;7.90;3.00;;;;;;;;;;110608;1259;22126;-77
2023/05/01 12:49:36;;;;;;;7.40;3.20;;;;;;;;;;110459;1275;22121;-80
2023/05/01 12:52:05;;;;;;;8.80;3.70;;;;;;;;;;110469;1275;22124;-79
2023/05/01 12:54:37;;;;;;;7.90;3.10;;;;;;;;;;110470;1276;22823;-77
2023/05/01 12:57:13;;;;;;;9.10;2.90;;;;;;;;;;110728;1256;22206;-78
2023/05/01 12:59:41;;;;;;;9.60;3.30;;;;;;;;;;110447;1276;22302;-79
2023/05/01 13:02:09;;;;;;;8.70;3.80;;;;;;;;;;110470;1276;22811;-78
2023/05/01 13:04:36;;;;;;;9.20;3.20;;;;;;;;;;110470;1276;22780;-77
2023/05/01 13:07:09;;;;;;;7.80;3.20;;;;;;;;;;110590;1260;23169;-78
2023/05/01 13:09:36;;;;;;;10.60;3.40;;;;;;;;;;110466;1275;22936;-77
2023/05/01 13:12:07;;;;;;;9.20;3.70;;;;;;;;;;110473;1275;22987;-76
2023/05/01 13:14:36;;;;;;;7.80;3.00;;;;;;;;;;110474;1275;22303;-77
2023/05/01 13:17:03;;;;;;;10.40;3.00;;;;;;;;;;110560;1260;22449;-77
2023/05/01 13:19:30;;;;;;;10.50;3.70;;;;;;;;;;110445;1275;22134;-77
2023/05/01 13:21:57;;;;;;;8.60;3.40;;;;;;;;;;110434;1275;22456;-77
2023/05/01 13:24:23;;;;;;;9.70;3.90;;;;;;;;;;110472;1276;22153;-78
2023/05/01 13:26:59;;;;;;;9.40;2.90;;;;;;;;;;110617;1254;23237;-77
2023/05/01 13:29:26;;;;;;;9.30;3.40;;;;;;;;;;110646;1276;22135;-77
2023/05/01 13:31:52;;;;;;;9.50;3.40;;;;;;;;;;110474;1276;22566;-77
2023/05/01 13:34:24;;;;;;;7.50;3.00;;;;;;;;;;110604;1276;22255;-78
2023/05/01 13:36:50;;;;;;;7.70;2.40;;;;;;;;;;110462;1254;22363;-79
2023/05/01 13:39:22;;;;;;;9.00;3.20;;;;;;;;;;110456;1276;22769;-76
2023/05/01 13:41:48;;;;;;;7.50;2.70;;;;;;;;;;110641;1276;22455;-77
2023/05/01 13:44:15;;;;;;;6.60;2.80;;;;;;;;;;110482;1276;22238;-78
2023/05/01 13:46:41;;;;;;;6.00;2.20;;;;;;;;;;110458;1276;23068;-80
2023/05/01 13:49:07;;;;;;;11.70;4.40;;;;;;;;;;110808;1259;22430;-78
2023/05/01 13:51:37;;;;;;;8.30;2.70;;;;;;;;;;110462;1276;22253;-78
2023/05/01 13:54:03;;;;;;;7.40;2.70;;;;;;;;;;110480;1276;22174;-79
2023/05/01 13:56:40;;;;;;;6.60;2.60;;;;;;;;;;110455;1276;23021;-81
2023/05/01 13:59:06;;;;;;;10.70;2.90;;;;;;;;;;110782;1256;22491;-78
2023/05/01 14:01:46;;;;;;;9.50;2.60;;;;;;;;;;110461;1276;22968;-79
2023/05/01 14:04:20;;;;;;;7.00;2.50;;;;;;;;;;110372;1276;22123;-78
2023/05/01 14:06:47;;;;;;;8.80;3.50;;;;;;;;;;110380;1276;22901;-78
2023/05/01 14:09:16;;;;;;;8.80;2.80;;;;;;;;;;110711;1260;22306;-76
2023/05/01 14:11:46;;;;;;;6.30;2.20;;;;;;;;;;110335;1276;22143;-78
2023/05/01 14:14:13;;;;;;;6.90;2.50;;;;;;;;;;110340;1268;22211;-78
2023/05/01 14:16:40;;;;;;;11.30;4.90;;;;;;;;;;110484;1276;22214;-77
2023/05/01 14:19:07;;;;;;;11.00;4.10;;;;;;;;;;110708;1259;22473;-78
2023/05/01 14:21:38;;;;;;;8.80;2.80;;;;;;;;;;110626;1276;22323;-77
2023/05/01 14:24:04;;;;;;;9.80;3.90;;;;;;;;;;110488;1276;22169;-78
2023/05/01 14:26:30;;;;;;;8.80;3.90;;;;;;;;;;110610;1276;22175;-77
2023/05/01 14:28:56;;;;;;;10.90;4.00;;;;;;;;;;110616;1266;22159;-78
2023/05/01 14:31:27;;;;;;;9.60;3.40;;;;;;;;;;110457;1276;22448;-76
2023/05/01 14:33:57;;;;;;;8.30;3.10;;;;;;;;;;110500;1276;22108;-76
2023/05/01 14:36:24;;;;;;;8.10;3.10;;;;;;;;;;110286;1277;22241;-77
2023/05/01 14:38:50;;;;;;;7.90;2.80;;;;;;;;;;110363;1260;22135;-77
2023/05/01 14:41:18;;;;;;;11.50;3.50;;;;;;;;;;110292;1277;22171;-77
2023/05/01 14:43:44;;;;;;;13.70;6.60;;;;;;;;;;110310;1277;22126;-77
2023/05/01 14:46:14;;;;;;;10.50;4.30;;;;;;;;;;110279;1277;23002;-77